Selsey, United Kingdom
Current Conditions -  °F | °C
As of 3:50 PM on Friday 28 Nov 2014 (Local Time) from EGKA Reporting Station
Clear Clear  
Wind Chill: 12°   Ceiling: Unl
Heat Index: 12°   Visibility: 6mi
Dew Point:   Wind: 8mph
Humidity: 82%   Direction: 50°NE
Pressure: 29.56"   Gusts: NA
Location:  50.74°N, 0.79°W
Report Text: EGKA 281550Z 05007KT 9000 NSC 12/09 Q1001
Loading
Personal Weather Stations






























Interactive Weather Map New forecast layout! Learn more

10-Day Weather Forecast

Advertisements
Track Severe Weather on mobile